This demonstration page uses our WeatherBlox Daily Observations layout. Learn more.

Left ArrowRight Arrow

Hourly Observations for April 17, 2021

Temp ( °F °C ) Dew Point ( °F °C ) Humidity (%) Winds ( mph kmh ) Pressure ( in mb ) Visibility ( mi km ) Precip ( " mm )
12:51 am 00:51 Clear 55 12.8 6 -14.4 14 14 NNW 10 17 29.79 1009 10 16.0934 N/A
1:51 am 01:51 Clear 51 10.6 11 -11.7 20 20 SSE 7 11 29.79 1009 10 16.0934 N/A
2:51 am 02:51 Clear 47 8.3 10 -12.2 22 22 S 6 9 29.8 1009 10 16.0934 N/A
3:51 am 03:51 Clear 45 7.2 7 -13.9 21 21 E 3 6 29.8 1009 10 16.0934 N/A
4:51 am 04:51 Clear 44 6.7 6 -14.4 21 21 N N/A 29.8 1009 10 16.0934 N/A
5:51 am 05:51 Sunny 45 7.2 8 -13.3 22 22 SE 3 6 29.83 1010 10 16.0934 N/A
6:51 am 06:51 Sunny 50 10 7 -13.9 17 17 N N/A 29.84 1011 10 16.0934 N/A
7:51 am 07:51 Sunny 57 13.9 11 -11.7 16 16 S 3 6 29.85 1011 10 16.0934 N/A
8:51 am 08:51 Sunny 63 17.2 11 -11.7 13 13 VRB 5 7 29.84 1011 10 16.0934 N/A
9:51 am 09:51 Sunny 69 20.6 12 -11.1 11 11 ESE 6 9 29.83 1010 10 16.0934 N/A
10:51 am 10:51 Sunny 71 21.7 13 -10.6 10 10 S 6 9 29.82 1010 10 16.0934 N/A
11:51 am 11:51 Sunny 74 23.3 12 -11.1 9 9 N N/A 29.8 1009 10 16.0934 N/A
12:51 pm 12:51 Sunny 76 24.4 12 -11.1 9 9 W 9 15 29.77 1008 10 16.0934 N/A
1:51 pm 13:51 Sunny 75 23.9 11 -11.7 8 8 SSE 5 7 29.75 1008 10 16.0934 N/A
2:51 pm 14:51 Sunny 77 25 12 -11.1 8 8 NW 9 15 29.74 1007 10 16.0934 N/A
3:51 pm 15:51 Sunny 79 26.1 11 -11.7 7 7 WNW 15 24 29.71 1006 10 16.0934 N/A
4:51 pm 16:51 Sunny 79 26.1 9 -12.8 7 7 NW 14 22 29.71 1006 10 16.0934 N/A
5:51 pm 17:51 Sunny 76 24.4 8 -13.3 7 7 W 17 28 29.71 1006 10 16.0934 N/A
6:51 pm 18:51 Clear 72 22.2 7 -13.9 8 8 WNW 17 28 29.73 1007 10 16.0934 N/A
7:51 pm 19:51 Clear 68 20 8 -13.3 9 9 WNW 14 22 29.76 1008 10 16.0934 N/A
8:51 pm 20:51 Clear 66 18.9 9 -12.8 10 10 NW 16 26 29.77 1008 10 16.0934 N/A
9:51 pm 21:51 Clear 65 18.3 9 -12.8 11 11 NW 15 24 29.77 1008 10 16.0934 N/A
10:51 pm 22:51 Clear 62 16.7 11 -11.7 13 13 WNW 5 7 29.8 1009 10 16.0934 N/A
11:51 pm 23:51 Clear 59 15 22 -5.6 24 24 NW 5 7 29.84 1010 10 16.0934 N/A

Powered by AerisWeather